Yellow Mule RAWS (NWS)

Jump to table bottom
Date/Time Wind Direction Wind Speed knots Wind Gust knots RH % Accumulated Precip Inches Air Temp Fahrenheit
2022-01-21 05:04 N 3 17 90 0 16
2022-01-21 04:04 W 9 17 90 0 16
2022-01-21 03:04 WSW 13 21 91 0 16
2022-01-21 02:04 SW 11 20 91 0 16
2022-01-21 01:04 SW 17 22 91 0 17
2022-01-21 00:04 SSW 12 19 92 0 18
2022-01-20 23:04 SSW 11 19 93 0 19
2022-01-20 22:04 SW 15 22 93 0 20
2022-01-20 21:04 SSW 10 19 91 0 17
2022-01-20 20:04 SSW 7 14 92 0 19
2022-01-20 19:04 SSW 8 16 93 0 20
2022-01-20 18:04 SSW 8 11 91 0 15
2022-01-20 17:04 SSW 6 15 88 0 13
2022-01-20 16:04 S 7 15 90 0 15
2022-01-20 15:04 SSW 10 16 90 0 20
2022-01-20 14:04 S 9 17 85 0 14
2022-01-20 13:04 SSW 8 17 88 0 22
2022-01-20 12:04 SSW 10 16 89 0 20
2022-01-20 11:04 SSW 14 18 90 0 20
2022-01-20 10:04 SSW 14 20 88 0 18
2022-01-20 09:04 SSW 13 17 83 0 16
2022-01-20 08:04 SSW 15 19 83 0 14
2022-01-20 07:04 SSW 12 18 72 0 14
2022-01-20 06:04 SSW 13 17 76 0 12
2022-01-20 05:04 SSW 12 18 82 0 11
2022-01-20 04:04 SSW 11 17 83 0 11
2022-01-20 03:04 SSW 12 23 83 0 12
2022-01-20 02:04 SSW 18 27 84 0 12
2022-01-20 01:04 SSW 17 23 86 0 12
2022-01-20 00:04 SSW 17 24 84 0 12
2022-01-19 23:04 SSW 16 21 82 0 13
2022-01-19 22:04 SW 9 18 81 0 13
2022-01-19 21:04 WSW 9 19 80 0 13
2022-01-19 20:04 WSW 8 17 81 0 13
2022-01-19 19:04 WSW 10 17 82 0 12
2022-01-19 18:04 WSW 12 17 81 0 13
2022-01-19 17:04 WSW 13 18 82 0 13
2022-01-19 16:04 WSW 11 15 78 0 14
2022-01-19 15:04 W 10 14 76 0 15
2022-01-19 14:04 WSW 9 15 76 0 18
2022-01-19 13:04 NW 6 10 81 0 17
2022-01-19 12:04 N 4 7 84 0 17
2022-01-19 11:04 NE 2 5 80 0 19
2022-01-19 10:04 NNE 2 4 88 0 15
2022-01-19 09:04 N 3 10 90 0 15
2022-01-19 08:04 W 6 13 85 0 15
2022-01-19 07:04 W 9 15 86 0 15
2022-01-19 06:04 WSW 10 15 84 0 15
2022-01-19 05:04 SW 10 14 90 0 16
2022-01-19 04:04 WSW 9 14 89 0 16